Time;durP1;ratioP1;P1;durP2;ratioP2;P2;SDS_P1;SDS_P2;PMS_P1;PMS_P2;Temp;Humidity;BMP_temperature;BMP_pressure;BME280_temperature;BME280_humidity;BME280_pressure;Samples;Min_cycle;Max_cycle;Signal;HPM_P1;HPM_P2
2023/07/19 00:00:18;;;;;;;5.13;2.30;;;;;;;;;;5027094;28;20040;-71
2023/07/19 00:02:43;;;;;;;6.72;2.58;;;;;;;;;;5061315;28;20036;-71
2023/07/19 00:05:09;;;;;;;5.82;2.17;;;;;;;;;;5031792;28;20041;-70
2023/07/19 00:07:34;;;;;;;5.40;2.05;;;;;;;;;;5032722;28;20036;-70
2023/07/19 00:09:59;;;;;;;6.15;2.30;;;;;;;;;;5031050;28;20124;-69
2023/07/19 00:12:25;;;;;;;5.22;2.22;;;;;;;;;;5032482;28;20026;-71
2023/07/19 00:14:50;;;;;;;4.43;2.15;;;;;;;;;;5060677;28;20030;-71
2023/07/19 00:17:15;;;;;;;5.50;2.05;;;;;;;;;;5008897;28;20052;-71
2023/07/19 00:19:41;;;;;;;9.20;2.40;;;;;;;;;;5013336;28;20042;-70
2023/07/19 00:22:07;;;;;;;9.43;2.63;;;;;;;;;;5027403;28;20049;-71
2023/07/19 00:24:32;;;;;;;4.65;2.58;;;;;;;;;;5015442;28;20060;-72
2023/07/19 00:26:58;;;;;;;10.93;2.45;;;;;;;;;;5027942;28;20037;-70
2023/07/19 00:29:23;;;;;;;9.98;2.80;;;;;;;;;;5012388;28;20053;-71
2023/07/19 00:31:48;;;;;;;6.72;2.25;;;;;;;;;;5011983;28;20042;-71
2023/07/19 00:34:14;;;;;;;6.25;2.42;;;;;;;;;;5015659;28;20041;-71
2023/07/19 00:36:39;;;;;;;7.07;2.30;;;;;;;;;;5011691;28;20037;-72
2023/07/19 00:39:04;;;;;;;7.88;2.30;;;;;;;;;;5006947;28;20038;-72
2023/07/19 00:41:29;;;;;;;4.80;2.38;;;;;;;;;;5010850;28;20521;-71
2023/07/19 00:43:55;;;;;;;8.60;2.35;;;;;;;;;;5029212;28;20060;-72
2023/07/19 00:46:21;;;;;;;7.00;2.50;;;;;;;;;;5047205;28;20083;-71
2023/07/19 00:48:46;;;;;;;7.22;2.67;;;;;;;;;;5030171;28;20501;-71
2023/07/19 00:51:14;;;;;;;8.40;2.55;;;;;;;;;;5031497;28;20072;-72
2023/07/19 00:53:40;;;;;;;5.47;2.28;;;;;;;;;;5033353;28;20021;-72
2023/07/19 00:56:07;;;;;;;5.28;2.33;;;;;;;;;;5032670;28;20631;-71
2023/07/19 00:58:33;;;;;;;7.50;2.28;;;;;;;;;;5030046;28;21938;-70
2023/07/19 01:00:58;;;;;;;6.60;2.05;;;;;;;;;;5033465;28;20107;-71
2023/07/19 01:03:24;;;;;;;6.20;2.15;;;;;;;;;;5050280;28;20029;-70
2023/07/19 01:05:49;;;;;;;10.02;2.72;;;;;;;;;;5034391;28;20049;-70
2023/07/19 01:08:15;;;;;;;6.55;2.10;;;;;;;;;;5028718;28;20604;-70
2023/07/19 01:10:41;;;;;;;7.80;2.10;;;;;;;;;;5065567;28;20041;-71
2023/07/19 01:13:09;;;;;;;7.38;2.38;;;;;;;;;;5031937;28;20037;-71
2023/07/19 01:15:35;;;;;;;8.48;2.47;;;;;;;;;;5032062;28;20037;-71
2023/07/19 01:18:01;;;;;;;7.15;1.85;;;;;;;;;;5052641;28;20033;-72
2023/07/19 01:20:26;;;;;;;9.10;1.98;;;;;;;;;;5038695;28;20029;-72
2023/07/19 01:22:52;;;;;;;5.20;1.80;;;;;;;;;;5042302;28;20037;-69
2023/07/19 01:25:19;;;;;;;6.38;1.65;;;;;;;;;;5039146;28;20547;-69
2023/07/19 01:27:44;;;;;;;5.20;1.60;;;;;;;;;;5038085;28;20776;-71
2023/07/19 01:30:10;;;;;;;8.20;1.65;;;;;;;;;;5038356;28;20029;-73
2023/07/19 01:32:35;;;;;;;5.25;1.60;;;;;;;;;;5039644;28;20037;-70
2023/07/19 01:35:00;;;;;;;5.97;1.58;;;;;;;;;;5029767;28;20028;-71
2023/07/19 01:37:31;;;;;;;7.78;1.73;;;;;;;;;;5032602;28;20036;-70
2023/07/19 01:39:57;;;;;;;6.90;1.73;;;;;;;;;;5032338;28;20056;-71
2023/07/19 01:42:22;;;;;;;10.50;1.90;;;;;;;;;;5025452;28;20045;-70
2023/07/19 01:44:47;;;;;;;4.97;1.60;;;;;;;;;;5028457;28;20060;-71
2023/07/19 01:47:13;;;;;;;11.40;2.00;;;;;;;;;;5044366;28;20033;-70
2023/07/19 01:49:39;;;;;;;11.45;1.95;;;;;;;;;;5033123;28;20125;-70
2023/07/19 01:52:05;;;;;;;9.98;2.50;;;;;;;;;;5029355;28;20061;-70
2023/07/19 01:54:30;;;;;;;5.82;1.90;;;;;;;;;;5035522;28;22784;-71
2023/07/19 01:56:59;;;;;;;9.07;2.00;;;;;;;;;;5029367;28;20774;-71
2023/07/19 01:59:24;;;;;;;4.30;1.73;;;;;;;;;;5027497;28;20402;-72
2023/07/19 02:01:49;;;;;;;7.50;1.60;;;;;;;;;;5025570;28;20041;-73
2023/07/19 02:04:15;;;;;;;6.70;1.80;;;;;;;;;;5039155;28;20041;-73
2023/07/19 02:06:40;;;;;;;6.80;1.67;;;;;;;;;;5037214;28;20025;-73
2023/07/19 02:09:05;;;;;;;5.53;1.45;;;;;;;;;;5037364;28;20088;-72
2023/07/19 02:11:31;;;;;;;7.65;1.88;;;;;;;;;;5036946;28;20509;-74
2023/07/19 02:13:56;;;;;;;7.20;2.10;;;;;;;;;;5042335;28;20056;-74
2023/07/19 02:16:21;;;;;;;4.85;1.33;;;;;;;;;;5038915;28;20068;-75
2023/07/19 02:18:50;;;;;;;5.57;1.45;;;;;;;;;;5040718;28;20064;-73
2023/07/19 02:21:15;;;;;;;4.90;1.40;;;;;;;;;;5033866;28;20033;-73
2023/07/19 02:23:40;;;;;;;4.75;1.75;;;;;;;;;;5037362;28;20037;-75
2023/07/19 02:26:05;;;;;;;5.85;1.77;;;;;;;;;;5039462;28;20064;-74
2023/07/19 02:28:31;;;;;;;5.38;1.60;;;;;;;;;;5039413;28;20025;-74
2023/07/19 02:30:56;;;;;;;7.32;1.50;;;;;;;;;;5037714;28;20060;-74
2023/07/19 02:33:21;;;;;;;5.38;1.50;;;;;;;;;;5039348;28;20071;-74
2023/07/19 02:35:51;;;;;;;7.95;1.67;;;;;;;;;;5038180;28;20041;-73
2023/07/19 02:38:23;;;;;;;5.78;1.75;;;;;;;;;;5038046;28;20033;-73
2023/07/19 02:40:49;;;;;;;7.60;1.83;;;;;;;;;;5039257;28;20033;-73
2023/07/19 02:43:14;;;;;;;3.17;1.50;;;;;;;;;;5037631;28;20516;-72
2023/07/19 02:45:40;;;;;;;5.22;1.40;;;;;;;;;;5035387;28;20037;-72
2023/07/19 02:48:05;;;;;;;8.93;1.60;;;;;;;;;;5044305;28;20422;-73
2023/07/19 02:50:31;;;;;;;6.80;1.60;;;;;;;;;;5030015;28;20167;-72
2023/07/19 02:52:56;;;;;;;9.55;1.60;;;;;;;;;;5051319;28;20036;-73
2023/07/19 02:55:24;;;;;;;6.40;1.70;;;;;;;;;;5035849;28;20129;-72
2023/07/19 02:57:49;;;;;;;7.28;1.77;;;;;;;;;;5064021;28;20613;-73
2023/07/19 03:00:15;;;;;;;5.13;1.52;;;;;;;;;;5036500;28;20099;-72
2023/07/19 03:02:40;;;;;;;5.25;1.60;;;;;;;;;;5036405;28;20033;-72
2023/07/19 03:05:06;;;;;;;6.53;1.70;;;;;;;;;;5036792;28;20091;-73
2023/07/19 03:07:32;;;;;;;8.43;1.95;;;;;;;;;;5037144;28;20044;-73
2023/07/19 03:09:57;;;;;;;6.22;1.73;;;;;;;;;;5039397;28;20044;-74
2023/07/19 03:12:25;;;;;;;7.28;1.90;;;;;;;;;;5037604;28;20029;-74
2023/07/19 03:14:50;;;;;;;7.38;1.92;;;;;;;;;;5054876;28;20033;-73
2023/07/19 03:17:15;;;;;;;10.38;2.13;;;;;;;;;;5057614;28;20370;-74
2023/07/19 03:19:41;;;;;;;7.93;2.00;;;;;;;;;;5040347;28;20033;-73
2023/07/19 03:22:06;;;;;;;6.53;1.95;;;;;;;;;;5037240;28;20037;-73
2023/07/19 03:24:31;;;;;;;6.10;1.85;;;;;;;;;;5037851;28;20051;-73
2023/07/19 03:26:57;;;;;;;4.95;1.90;;;;;;;;;;5042372;28;20036;-73
2023/07/19 03:29:22;;;;;;;9.40;2.20;;;;;;;;;;5039582;28;20038;-73
2023/07/19 03:31:47;;;;;;;6.90;1.88;;;;;;;;;;5042162;28;20029;-73
2023/07/19 03:34:13;;;;;;;9.77;1.70;;;;;;;;;;5031819;28;20080;-72
2023/07/19 03:36:38;;;;;;;9.05;2.00;;;;;;;;;;5034954;28;20070;-73
2023/07/19 03:39:04;;;;;;;5.32;1.50;;;;;;;;;;5037936;28;20494;-74
2023/07/19 03:41:32;;;;;;;9.05;1.88;;;;;;;;;;5020356;28;20029;-74
2023/07/19 03:43:57;;;;;;;8.13;1.50;;;;;;;;;;5019906;28;20443;-73
2023/07/19 03:46:22;;;;;;;7.15;1.60;;;;;;;;;;5020741;28;20036;-74
2023/07/19 03:48:48;;;;;;;5.55;1.77;;;;;;;;;;5021783;28;20029;-74
2023/07/19 03:51:13;;;;;;;6.32;1.83;;;;;;;;;;5025026;28;20630;-75
2023/07/19 03:53:38;;;;;;;8.85;1.63;;;;;;;;;;5022773;28;20037;-74
2023/07/19 03:56:04;;;;;;;5.55;1.55;;;;;;;;;;5022924;28;20561;-74
2023/07/19 03:58:30;;;;;;;4.38;1.42;;;;;;;;;;5028571;28;20095;-74
2023/07/19 04:00:56;;;;;;;8.13;1.83;;;;;;;;;;5027343;28;20034;-74
2023/07/19 04:03:25;;;;;;;4.45;1.73;;;;;;;;;;5061347;28;20024;-74
2023/07/19 04:05:51;;;;;;;4.80;1.60;;;;;;;;;;5076606;28;20050;-74
2023/07/19 04:08:19;;;;;;;6.35;1.67;;;;;;;;;;5049566;28;20090;-74
2023/07/19 04:10:44;;;;;;;6.13;1.75;;;;;;;;;;5065734;28;20029;-74
2023/07/19 04:13:10;;;;;;;6.07;1.77;;;;;;;;;;5073662;28;20029;-74
2023/07/19 04:15:36;;;;;;;6.13;1.70;;;;;;;;;;5039861;28;20034;-74
2023/07/19 04:18:01;;;;;;;8.32;1.88;;;;;;;;;;5059447;28;20037;-74
2023/07/19 04:20:28;;;;;;;5.70;1.60;;;;;;;;;;5044098;28;20036;-75
2023/07/19 04:22:53;;;;;;;7.38;1.70;;;;;;;;;;5041041;28;20437;-74
2023/07/19 04:25:18;;;;;;;4.95;1.80;;;;;;;;;;5033486;28;20037;-74
2023/07/19 04:27:44;;;;;;;5.82;1.80;;;;;;;;;;5046125;28;20025;-74
2023/07/19 04:30:09;;;;;;;3.75;1.55;;;;;;;;;;5047530;28;20128;-74
2023/07/19 04:32:35;;;;;;;5.28;1.50;;;;;;;;;;5046848;28;20028;-74
2023/07/19 04:35:00;;;;;;;5.90;1.80;;;;;;;;;;5062184;28;20026;-75
2023/07/19 04:37:25;;;;;;;6.28;1.67;;;;;;;;;;5045289;28;20044;-75
2023/07/19 04:39:52;;;;;;;6.90;1.90;;;;;;;;;;5047128;28;20503;-74
2023/07/19 04:42:19;;;;;;;7.30;1.90;;;;;;;;;;5045160;28;20033;-74
2023/07/19 04:44:45;;;;;;;8.68;1.67;;;;;;;;;;5047485;28;20108;-75
2023/07/19 04:47:11;;;;;;;5.45;1.58;;;;;;;;;;5044272;28;20033;-75
2023/07/19 04:49:37;;;;;;;7.78;1.70;;;;;;;;;;5032044;28;20388;-76
2023/07/19 04:52:02;;;;;;;7.57;1.52;;;;;;;;;;5038702;28;20033;-75
2023/07/19 04:54:27;;;;;;;6.80;1.52;;;;;;;;;;5047822;28;20032;-73
2023/07/19 04:56:55;;;;;;;6.55;1.40;;;;;;;;;;5047959;28;20064;-75
2023/07/19 04:59:20;;;;;;;7.93;1.50;;;;;;;;;;5063739;28;20021;-75
2023/07/19 05:01:45;;;;;;;6.07;1.50;;;;;;;;;;5057409;28;20059;-74
2023/07/19 05:04:11;;;;;;;5.38;1.38;;;;;;;;;;5038713;28;20033;-68
2023/07/19 05:06:36;;;;;;;8.93;1.42;;;;;;;;;;5024559;28;20306;-69
2023/07/19 05:09:05;;;;;;;10.73;2.03;;;;;;;;;;5027069;28;20120;-69
2023/07/19 05:11:31;;;;;;;5.50;2.38;;;;;;;;;;5019234;28;20025;-68
2023/07/19 05:13:56;;;;;;;8.23;2.03;;;;;;;;;;5023886;28;20055;-68
2023/07/19 05:16:21;;;;;;;8.25;1.80;;;;;;;;;;5024459;28;20033;-68
2023/07/19 05:18:47;;;;;;;8.20;1.88;;;;;;;;;;5021033;28;20040;-70
2023/07/19 05:21:13;;;;;;;19.98;2.50;;;;;;;;;;5024223;28;20170;-69
2023/07/19 05:23:39;;;;;;;19.67;2.33;;;;;;;;;;5028183;28;20585;-69
2023/07/19 05:26:04;;;;;;;6.38;2.08;;;;;;;;;;5001562;28;20041;-70
2023/07/19 05:28:29;;;;;;;8.15;1.75;;;;;;;;;;5004785;28;20088;-70
2023/07/19 05:31:00;;;;;;;9.65;1.98;;;;;;;;;;5006400;28;20091;-69
2023/07/19 05:33:25;;;;;;;9.48;1.77;;;;;;;;;;5004033;28;20042;-69
2023/07/19 05:35:50;;;;;;;8.50;1.92;;;;;;;;;;5009385;28;20065;-69
2023/07/19 05:38:16;;;;;;;8.63;2.55;;;;;;;;;;5005370;28;20060;-69
2023/07/19 05:40:41;;;;;;;7.10;2.38;;;;;;;;;;5036992;28;20034;-69
2023/07/19 05:43:06;;;;;;;3.97;1.60;;;;;;;;;;5009511;28;20506;-70
2023/07/19 05:45:31;;;;;;;4.00;1.67;;;;;;;;;;5001825;28;20056;-69
2023/07/19 05:47:57;;;;;;;5.15;1.73;;;;;;;;;;5004225;28;20743;-69
2023/07/19 05:50:22;;;;;;;13.90;2.10;;;;;;;;;;5002910;28;20107;-70
2023/07/19 05:52:47;;;;;;;7.43;1.50;;;;;;;;;;5004196;28;20121;-69
2023/07/19 05:55:13;;;;;;;24.98;2.83;;;;;;;;;;5003207;28;20034;-71
2023/07/19 05:57:39;;;;;;;43.25;4.05;;;;;;;;;;5012890;28;20037;-72
2023/07/19 06:00:13;;;;;;;12.45;2.22;;;;;;;;;;5025505;28;20025;-72
2023/07/19 06:02:39;;;;;;;9.10;2.00;;;;;;;;;;5027265;28;20037;-70
2023/07/19 06:05:05;;;;;;;8.95;2.10;;;;;;;;;;5027209;28;20071;-70
2023/07/19 06:07:32;;;;;;;9.00;1.90;;;;;;;;;;5008538;28;20060;-70
2023/07/19 06:10:00;;;;;;;210.20;15.10;;;;;;;;;;5018633;28;20064;-70
2023/07/19 06:12:25;;;;;;;46.28;6.50;;;;;;;;;;5024749;28;20124;-69
2023/07/19 06:14:53;;;;;;;11.13;1.90;;;;;;;;;;5025687;28;20683;-70
2023/07/19 06:17:18;;;;;;;12.75;4.03;;;;;;;;;;5059406;28;20041;-70
2023/07/19 06:19:46;;;;;;;8.50;1.90;;;;;;;;;;5021891;28;20045;-71
2023/07/19 06:22:11;;;;;;;8.10;2.00;;;;;;;;;;5024965;28;20097;-70
2023/07/19 06:24:36;;;;;;;6.55;1.80;;;;;;;;;;5055746;28;20045;-71
2023/07/19 06:27:02;;;;;;;7.22;1.40;;;;;;;;;;5055183;28;20033;-73
2023/07/19 06:29:27;;;;;;;8.70;1.90;;;;;;;;;;5024745;28;20033;-71
2023/07/19 06:31:52;;;;;;;5.57;1.55;;;;;;;;;;5015958;28;20049;-72
2023/07/19 06:34:17;;;;;;;6.47;1.75;;;;;;;;;;5004441;28;20022;-72
2023/07/19 06:36:43;;;;;;;5.63;1.80;;;;;;;;;;5006660;28;20068;-72
2023/07/19 06:39:08;;;;;;;6.05;1.83;;;;;;;;;;5006421;28;20041;-72
2023/07/19 06:41:33;;;;;;;9.18;1.85;;;;;;;;;;5005895;28;20064;-71
2023/07/19 06:43:58;;;;;;;10.13;1.90;;;;;;;;;;5016143;28;20040;-71
2023/07/19 06:46:24;;;;;;;10.77;2.13;;;;;;;;;;5023771;28;20897;-71
2023/07/19 06:48:49;;;;;;;12.35;1.77;;;;;;;;;;5039585;28;20030;-71
2023/07/19 06:51:15;;;;;;;11.27;2.28;;;;;;;;;;5024498;28;20029;-71
2023/07/19 06:53:40;;;;;;;8.35;1.80;;;;;;;;;;5022487;28;20028;-71
2023/07/19 06:56:05;;;;;;;5.53;1.73;;;;;;;;;;5023298;28;22399;-71
2023/07/19 06:58:33;;;;;;;8.15;1.92;;;;;;;;;;5025478;28;20037;-73
2023/07/19 07:00:59;;;;;;;9.45;2.03;;;;;;;;;;5056320;28;20036;-72
2023/07/19 07:03:24;;;;;;;6.85;1.92;;;;;;;;;;5021459;28;20033;-70
2023/07/19 07:05:49;;;;;;;16.15;6.18;;;;;;;;;;5022649;28;20040;-69
2023/07/19 07:08:15;;;;;;;5.85;1.92;;;;;;;;;;5035822;28;20040;-70
2023/07/19 07:10:40;;;;;;;8.18;2.00;;;;;;;;;;5020765;28;20059;-70
2023/07/19 07:13:06;;;;;;;6.50;1.83;;;;;;;;;;5051861;28;20060;-71
2023/07/19 07:15:31;;;;;;;7.75;2.15;;;;;;;;;;5020193;28;20048;-70
2023/07/19 07:17:57;;;;;;;10.27;2.05;;;;;;;;;;5020830;28;20063;-70
2023/07/19 07:20:22;;;;;;;7.90;2.00;;;;;;;;;;5017562;28;20044;-70
2023/07/19 07:22:47;;;;;;;7.78;2.10;;;;;;;;;;5019262;28;20040;-72
2023/07/19 07:25:13;;;;;;;8.65;2.10;;;;;;;;;;5034252;28;20242;-70
2023/07/19 07:27:38;;;;;;;9.82;2.15;;;;;;;;;;5051491;28;20037;-71
2023/07/19 07:30:10;;;;;;;9.07;2.42;;;;;;;;;;5017328;28;20052;-71
2023/07/19 07:32:38;;;;;;;9.63;2.22;;;;;;;;;;5018791;28;20098;-72
2023/07/19 07:35:06;;;;;;;10.25;2.35;;;;;;;;;;5019215;28;20037;-72
2023/07/19 07:37:31;;;;;;;38.15;5.07;;;;;;;;;;5018514;28;20640;-71
2023/07/19 07:39:56;;;;;;;74.30;8.10;;;;;;;;;;5026754;28;20125;-77
2023/07/19 07:42:23;;;;;;;11.68;2.47;;;;;;;;;;5036012;28;20025;-75
2023/07/19 07:44:48;;;;;;;8.55;2.20;;;;;;;;;;5046492;28;20036;-76
2023/07/19 07:47:14;;;;;;;9.25;2.28;;;;;;;;;;5045993;28;20564;-76
2023/07/19 07:49:40;;;;;;;13.55;2.50;;;;;;;;;;5045171;28;20112;-76
2023/07/19 07:52:05;;;;;;;8.32;1.90;;;;;;;;;;5057981;28;20393;-75
2023/07/19 07:54:30;;;;;;;7.55;2.20;;;;;;;;;;5041634;28;20156;-77
2023/07/19 07:56:58;;;;;;;6.63;2.25;;;;;;;;;;5041751;28;20509;-76
2023/07/19 07:59:23;;;;;;;7.00;2.20;;;;;;;;;;5036841;28;20029;-77
2023/07/19 08:01:48;;;;;;;7.30;2.17;;;;;;;;;;5038879;28;20534;-77
2023/07/19 08:04:14;;;;;;;19.38;3.08;;;;;;;;;;5054232;28;20069;-73
2023/07/19 08:06:39;;;;;;;13.80;2.97;;;;;;;;;;5037242;28;20163;-75
2023/07/19 08:09:04;;;;;;;13.40;2.53;;;;;;;;;;5017412;28;20032;-68
2023/07/19 08:11:32;;;;;;;8.20;2.70;;;;;;;;;;5009942;28;20044;-68
2023/07/19 08:13:57;;;;;;;7.97;2.25;;;;;;;;;;5007650;28;21943;-67
2023/07/19 08:16:22;;;;;;;16.65;4.90;;;;;;;;;;5012533;28;20032;-65
2023/07/19 08:18:48;;;;;;;8.88;2.50;;;;;;;;;;5026243;28;20041;-68
2023/07/19 08:21:13;;;;;;;10.13;2.10;;;;;;;;;;5015062;28;20041;-69
2023/07/19 08:23:38;;;;;;;6.00;2.00;;;;;;;;;;5047551;28;20033;-69
2023/07/19 08:26:03;;;;;;;10.20;2.60;;;;;;;;;;5016228;28;20057;-69
2023/07/19 08:28:29;;;;;;;9.40;2.22;;;;;;;;;;5014922;28;20080;-69
2023/07/19 08:30:55;;;;;;;6.90;2.10;;;;;;;;;;5015676;28;20517;-70
2023/07/19 08:33:24;;;;;;;6.97;2.30;;;;;;;;;;5046849;28;20111;-69
2023/07/19 08:35:54;;;;;;;12.60;2.65;;;;;;;;;;5017656;28;20049;-68
2023/07/19 08:38:20;;;;;;;4.53;1.80;;;;;;;;;;5015119;28;20505;-69
2023/07/19 08:41:02;;;;;;;8.50;2.20;;;;;;;;;;5017925;28;20033;-69
2023/07/19 08:43:31;;;;;;;36.78;3.67;;;;;;;;;;4996301;28;20444;-68
2023/07/19 08:45:56;;;;;;;24.52;3.28;;;;;;;;;;5015118;28;20059;-68
2023/07/19 08:48:24;;;;;;;8.75;3.00;;;;;;;;;;5010446;28;20037;-68
2023/07/19 08:50:56;;;;;;;25.73;3.95;;;;;;;;;;5014879;28;20029;-69
2023/07/19 08:53:21;;;;;;;;;;;;;;;;;;5014205;28;20037;-70
2023/07/19 08:55:46;;;;;;;6.53;2.20;;;;;;;;;;5015682;28;19913;-69
2023/07/19 08:58:14;;;;;;;5.07;2.03;;;;;;;;;;5015461;28;20114;-69
2023/07/19 09:00:39;;;;;;;7.43;2.60;;;;;;;;;;5017495;28;20048;-70
2023/07/19 09:03:05;;;;;;;7.57;2.15;;;;;;;;;;5014002;28;20812;-69
2023/07/19 09:05:30;;;;;;;7.90;2.30;;;;;;;;;;5017158;28;20066;-69
2023/07/19 09:08:02;;;;;;;32.38;5.43;;;;;;;;;;5017726;28;20052;-70
2023/07/19 09:10:28;;;;;;;9.70;2.65;;;;;;;;;;5048508;28;20163;-70
2023/07/19 09:12:53;;;;;;;7.60;2.28;;;;;;;;;;5018806;28;20033;-69
2023/07/19 09:15:19;;;;;;;13.02;2.40;;;;;;;;;;5033989;28;20126;-69
2023/07/19 09:17:46;;;;;;;7.15;2.17;;;;;;;;;;5012565;28;20553;-70
2023/07/19 09:20:12;;;;;;;15.25;3.33;;;;;;;;;;5052569;28;21082;-73
2023/07/19 09:22:38;;;;;;;9.00;3.15;;;;;;;;;;5025509;28;20080;-75
2023/07/19 09:25:07;;;;;;;6.03;1.98;;;;;;;;;;5034209;28;20054;-72
2023/07/19 09:27:32;;;;;;;9.05;2.20;;;;;;;;;;5032646;28;20036;-72
2023/07/19 09:30:02;;;;;;;4.13;1.85;;;;;;;;;;5031323;28;20975;-74
2023/07/19 09:32:28;;;;;;;9.90;1.98;;;;;;;;;;5011630;28;20030;-75
2023/07/19 09:34:56;;;;;;;9.70;2.30;;;;;;;;;;5024432;28;20045;-74
2023/07/19 09:37:23;;;;;;;67.18;7.75;;;;;;;;;;5025104;28;20124;-74
2023/07/19 09:39:48;;;;;;;11.60;3.00;;;;;;;;;;5033584;28;20039;-73
2023/07/19 09:42:14;;;;;;;46.95;7.10;;;;;;;;;;5035522;28;20033;-74
2023/07/19 09:44:40;;;;;;;11.68;3.83;;;;;;;;;;5044491;28;20037;-76
2023/07/19 09:47:10;;;;;;;10.23;1.95;;;;;;;;;;5033632;28;20033;-74
2023/07/19 09:49:36;;;;;;;2.70;1.40;;;;;;;;;;5032246;28;20033;-75
2023/07/19 09:52:02;;;;;;;4.38;1.40;;;;;;;;;;5027638;28;20118;-76
2023/07/19 09:54:30;;;;;;;4.72;1.67;;;;;;;;;;5050159;28;20069;-74
2023/07/19 09:56:55;;;;;;;3.55;1.42;;;;;;;;;;5066595;28;20042;-74
2023/07/19 09:59:24;;;;;;;4.68;1.27;;;;;;;;;;5026398;28;20032;-71
2023/07/19 10:01:51;;;;;;;8.93;1.42;;;;;;;;;;5016607;28;20564;-70
2023/07/19 10:04:24;;;;;;;5.43;1.20;;;;;;;;;;5019689;28;20029;-71
2023/07/19 10:06:50;;;;;;;3.25;1.40;;;;;;;;;;5017266;28;20134;-70
2023/07/19 10:09:21;;;;;;;5.32;1.88;;;;;;;;;;5021170;28;20501;-70
2023/07/19 10:11:46;;;;;;;;;;;;;;;;;;5020478;28;20036;-69
2023/07/19 10:14:19;;;;;;;3.90;1.70;;;;;;;;;;5017716;28;19921;-70
2023/07/19 10:16:48;;;;;;;6.47;2.00;;;;;;;;;;5007953;28;20187;-71
2023/07/19 10:19:16;;;;;;;5.53;1.60;;;;;;;;;;5018824;28;20551;-72
2023/07/19 10:22:03;;;;;;;5.53;1.55;;;;;;;;;;5018374;28;20032;-70
2023/07/19 10:24:29;;;;;;;10.18;1.92;;;;;;;;;;5020121;28;20067;-69
2023/07/19 10:26:54;;;;;;;4.90;1.20;;;;;;;;;;5020244;28;20048;-70
2023/07/19 10:29:22;;;;;;;3.78;1.20;;;;;;;;;;5022870;28;20041;-69
2023/07/19 10:31:47;;;;;;;5.75;1.35;;;;;;;;;;4998575;28;20037;-69
2023/07/19 10:34:13;;;;;;;3.40;1.00;;;;;;;;;;5000965;28;20043;-70
2023/07/19 10:36:46;;;;;;;3.83;1.10;;;;;;;;;;4994732;28;20112;-69
2023/07/19 10:39:13;;;;;;;4.30;1.15;;;;;;;;;;4999322;28;20042;-69
2023/07/19 10:41:39;;;;;;;4.50;1.20;;;;;;;;;;4998347;28;20034;-69
2023/07/19 10:44:04;;;;;;;3.00;1.05;;;;;;;;;;5013939;28;20060;-70
2023/07/19 10:46:29;;;;;;;6.40;1.27;;;;;;;;;;5015438;28;20040;-70
2023/07/19 10:48:55;;;;;;;7.85;1.50;;;;;;;;;;4996694;28;20033;-70
2023/07/19 10:51:20;;;;;;;5.05;1.33;;;;;;;;;;4998632;28;20038;-69
2023/07/19 10:53:56;;;;;;;4.47;1.50;;;;;;;;;;5000890;28;20037;-70
2023/07/19 10:56:22;;;;;;;5.05;1.80;;;;;;;;;;5016233;28;20040;-69
2023/07/19 10:58:50;;;;;;;5.38;1.55;;;;;;;;;;5010083;28;20087;-71
2023/07/19 11:01:18;;;;;;;8.10;1.60;;;;;;;;;;4999465;28;20029;-69
2023/07/19 11:03:47;;;;;;;6.47;1.58;;;;;;;;;;4998747;28;20033;-71
2023/07/19 11:06:12;;;;;;;5.60;2.10;;;;;;;;;;5000798;28;20053;-71
2023/07/19 11:08:38;;;;;;;5.97;1.67;;;;;;;;;;5001115;28;20509;-70
2023/07/19 11:11:03;;;;;;;6.50;2.28;;;;;;;;;;4998397;28;20046;-71
2023/07/19 11:13:30;;;;;;;5.53;1.63;;;;;;;;;;4997118;28;20034;-71
2023/07/19 11:15:59;;;;;;;12.63;1.95;;;;;;;;;;4999265;28;20033;-70
2023/07/19 11:18:29;;;;;;;5.55;1.42;;;;;;;;;;4995418;28;20151;-71
2023/07/19 11:20:59;;;;;;;5.18;1.60;;;;;;;;;;5008939;28;20049;-68
2023/07/19 11:23:25;;;;;;;5.70;1.73;;;;;;;;;;5048263;28;20218;-70
2023/07/19 11:25:51;;;;;;;7.18;1.60;;;;;;;;;;5017533;28;20475;-69
2023/07/19 11:28:35;;;;;;;3.75;1.30;;;;;;;;;;5016517;28;20048;-67
2023/07/19 11:31:02;;;;;;;11.25;1.85;;;;;;;;;;5006506;28;20607;-71
2023/07/19 11:33:28;;;;;;;4.55;1.45;;;;;;;;;;5018450;28;20037;-71
2023/07/19 11:35:53;;;;;;;4.05;1.40;;;;;;;;;;5031790;28;20527;-69
2023/07/19 11:38:18;;;;;;;9.65;1.70;;;;;;;;;;5015997;28;20071;-72
2023/07/19 11:40:44;;;;;;;29.80;3.33;;;;;;;;;;5016096;28;20638;-68
2023/07/19 11:43:11;;;;;;;4.38;1.60;;;;;;;;;;5017972;28;20038;-72
2023/07/19 11:45:39;;;;;;;9.98;1.77;;;;;;;;;;5028514;28;20040;-69
2023/07/19 11:48:05;;;;;;;5.45;1.90;;;;;;;;;;5015234;28;20047;-69
2023/07/19 11:50:30;;;;;;;5.15;1.67;;;;;;;;;;5013761;28;20033;-72
2023/07/19 11:53:05;;;;;;;6.78;1.55;;;;;;;;;;5019105;28;20067;-70
2023/07/19 11:55:34;;;;;;;6.25;1.67;;;;;;;;;;5016461;28;20033;-69
2023/07/19 11:58:05;;;;;;;4.55;1.30;;;;;;;;;;5015275;28;20331;-70
2023/07/19 12:00:31;;;;;;;5.25;1.33;;;;;;;;;;5015947;28;20041;-74
2023/07/19 12:02:56;;;;;;;4.70;1.35;;;;;;;;;;5017264;28;20049;-70
2023/07/19 12:05:25;;;;;;;8.75;1.48;;;;;;;;;;5017813;28;20044;-71
2023/07/19 12:07:51;;;;;;;3.90;1.33;;;;;;;;;;5014366;28;20032;-72
2023/07/19 12:10:17;;;;;;;6.05;1.42;;;;;;;;;;5006894;28;20060;-70
2023/07/19 12:12:44;;;;;;;4.25;1.40;;;;;;;;;;5028059;28;20533;-72
2023/07/19 12:15:11;;;;;;;5.78;1.30;;;;;;;;;;5016847;28;20144;-71
2023/07/19 12:17:36;;;;;;;5.32;1.42;;;;;;;;;;5018972;28;20060;-69
2023/07/19 12:20:03;;;;;;;6.63;1.70;;;;;;;;;;5015931;28;20120;-68
2023/07/19 12:22:29;;;;;;;5.72;2.00;;;;;;;;;;5011864;28;20120;-70
2023/07/19 12:24:54;;;;;;;10.60;1.63;;;;;;;;;;5015005;28;20052;-70
2023/07/19 12:27:20;;;;;;;6.53;1.45;;;;;;;;;;5016031;28;20120;-69
2023/07/19 12:29:47;;;;;;;10.32;1.80;;;;;;;;;;5017213;28;20139;-70
2023/07/19 12:32:14;;;;;;;6.10;1.33;;;;;;;;;;5014559;28;20585;-70
2023/07/19 12:34:39;;;;;;;5.10;1.23;;;;;;;;;;4996659;28;20038;-69
2023/07/19 12:37:04;;;;;;;6.75;1.20;;;;;;;;;;4995216;28;20060;-69
2023/07/19 12:39:30;;;;;;;4.78;1.65;;;;;;;;;;5009666;28;20112;-70
2023/07/19 12:41:57;;;;;;;4.60;1.55;;;;;;;;;;5026563;28;20034;-71
2023/07/19 12:44:22;;;;;;;7.32;1.50;;;;;;;;;;4999661;28;20060;-69
2023/07/19 12:46:50;;;;;;;8.55;1.60;;;;;;;;;;5020602;28;20037;-69
2023/07/19 12:49:16;;;;;;;7.00;1.50;;;;;;;;;;4994050;28;20138;-69
2023/07/19 12:51:45;;;;;;;6.75;1.75;;;;;;;;;;4993531;28;20510;-68
2023/07/19 12:54:11;;;;;;;6.43;1.70;;;;;;;;;;4994729;28;20558;-68
2023/07/19 12:56:36;;;;;;;6.25;1.58;;;;;;;;;;5012632;28;20072;-71
2023/07/19 12:59:01;;;;;;;4.18;1.50;;;;;;;;;;5011224;28;20030;-70
2023/07/19 13:01:27;;;;;;;5.75;1.55;;;;;;;;;;4995584;28;20037;-69
2023/07/19 13:03:52;;;;;;;3.97;1.35;;;;;;;;;;5011794;28;20026;-69
2023/07/19 13:06:17;;;;;;;6.32;1.40;;;;;;;;;;5013916;28;22184;-71
2023/07/19 13:08:43;;;;;;;7.20;1.60;;;;;;;;;;5010614;28;20710;-70
2023/07/19 13:11:08;;;;;;;7.43;1.60;;;;;;;;;;5016289;28;20422;-71
2023/07/19 13:13:34;;;;;;;7.55;1.60;;;;;;;;;;5014131;28;20044;-71
2023/07/19 13:15:59;;;;;;;4.22;1.30;;;;;;;;;;5014915;28;20585;-69
2023/07/19 13:18:24;;;;;;;3.58;1.30;;;;;;;;;;5013092;28;20135;-69
2023/07/19 13:20:50;;;;;;;3.00;1.33;;;;;;;;;;5030797;28;20037;-70
2023/07/19 13:23:16;;;;;;;4.20;1.27;;;;;;;;;;5016721;28;20288;-71
2023/07/19 13:25:43;;;;;;;5.95;1.50;;;;;;;;;;5015568;28;20049;-71
2023/07/19 13:28:08;;;;;;;2.72;1.27;;;;;;;;;;5016280;28;20306;-70
2023/07/19 13:30:35;;;;;;;4.20;1.33;;;;;;;;;;5013559;28;20389;-69
2023/07/19 13:33:00;;;;;;;5.45;1.48;;;;;;;;;;5017151;28;20079;-71
2023/07/19 13:35:27;;;;;;;3.83;1.20;;;;;;;;;;5015673;28;20517;-70
2023/07/19 13:37:53;;;;;;;5.50;1.52;;;;;;;;;;5048508;28;20041;-69
2023/07/19 13:40:18;;;;;;;5.63;1.40;;;;;;;;;;4997885;28;20041;-69
2023/07/19 13:42:43;;;;;;;4.70;1.40;;;;;;;;;;5017502;28;20436;-70
2023/07/19 13:45:11;;;;;;;3.42;1.60;;;;;;;;;;5010023;28;20099;-70
2023/07/19 13:47:37;;;;;;;6.72;2.78;;;;;;;;;;5015577;28;20040;-70
2023/07/19 13:50:02;;;;;;;5.03;1.42;;;;;;;;;;5025013;28;20280;-69
2023/07/19 13:52:27;;;;;;;3.55;1.10;;;;;;;;;;5017899;28;20038;-70
2023/07/19 13:54:55;;;;;;;5.25;1.38;;;;;;;;;;5017654;28;20424;-70
2023/07/19 13:57:20;;;;;;;7.55;1.60;;;;;;;;;;5017999;28;20120;-71
2023/07/19 13:59:46;;;;;;;6.13;1.42;;;;;;;;;;5016135;28;20051;-71
2023/07/19 14:02:11;;;;;;;3.40;1.30;;;;;;;;;;5030547;28;20055;-70
2023/07/19 14:04:37;;;;;;;6.38;1.60;;;;;;;;;;5011217;28;20037;-70
2023/07/19 14:07:02;;;;;;;4.32;1.38;;;;;;;;;;5044906;28;20494;-70
2023/07/19 14:09:27;;;;;;;21.48;2.15;;;;;;;;;;5013947;28;20025;-71
2023/07/19 14:11:53;;;;;;;5.43;1.60;;;;;;;;;;5048592;28;20044;-69
2023/07/19 14:14:18;;;;;;;5.78;1.50;;;;;;;;;;5022152;28;20029;-68
2023/07/19 14:16:44;;;;;;;6.90;1.38;;;;;;;;;;5000819;28;20088;-69
2023/07/19 14:19:09;;;;;;;4.63;1.40;;;;;;;;;;4999113;28;20044;-70
2023/07/19 14:21:35;;;;;;;3.17;1.20;;;;;;;;;;5014382;28;20103;-69
2023/07/19 14:24:00;;;;;;;5.00;1.30;;;;;;;;;;5017804;28;20215;-70
2023/07/19 14:26:26;;;;;;;4.60;1.30;;;;;;;;;;5013375;28;20572;-68
2023/07/19 14:28:52;;;;;;;5.95;1.60;;;;;;;;;;5018601;28;20049;-70
2023/07/19 14:31:17;;;;;;;4.97;1.67;;;;;;;;;;5017467;28;20033;-68
2023/07/19 14:33:42;;;;;;;4.63;1.25;;;;;;;;;;5016503;28;20033;-71